Time;durP1;ratioP1;P1;durP2;ratioP2;P2;SDS_P1;SDS_P2;PMS_P1;PMS_P2;Temp;Humidity;BMP_temperature;BMP_pressure;BME280_temperature;BME280_humidity;BME280_pressure;Samples;Min_cycle;Max_cycle;Signal;HPM_P1;HPM_P2
2022/08/02 00:01:02;;;;;;;3.80;3.60;;;;;;;17.73;100.00;97149.72;4965191;28;20465;-69
2022/08/02 00:03:34;;;;;;;3.90;3.60;;;;;;;17.72;100.00;97146.19;4920859;28;20222;-67
2022/08/02 00:06:02;;;;;;;3.23;3.10;;;;;;;17.70;100.00;97150.97;4964849;28;20461;-69
2022/08/02 00:08:33;;;;;;;4.07;3.77;;;;;;;17.79;100.00;97154.94;4970233;28;20225;-68
2022/08/02 00:11:08;;;;;;;3.77;3.53;;;;;;;17.76;100.00;97154.59;4969786;28;20201;-69
2022/08/02 00:13:40;;;;;;;3.87;3.67;;;;;;;17.63;100.00;97143.06;4958755;28;20631;-66
2022/08/02 00:16:09;;;;;;;4.17;3.83;;;;;;;17.46;100.00;97160.81;4965712;28;20217;-68
2022/08/02 00:18:44;;;;;;;4.43;4.03;;;;;;;17.39;100.00;97173.50;4915612;28;20603;-66
2022/08/02 00:21:14;;;;;;;3.90;3.70;;;;;;;17.12;100.00;97173.84;4964281;28;20272;-67
2022/08/02 00:23:47;;;;;;;4.50;4.10;;;;;;;17.18;100.00;97172.94;4958087;28;20210;-66
2022/08/02 00:26:39;;;;;;;4.63;4.23;;;;;;;17.38;100.00;97167.31;4963848;28;20216;-67
2022/08/02 00:29:07;;;;;;;4.20;3.77;;;;;;;17.30;100.00;97168.47;4964340;28;20229;-66
2022/08/02 00:31:37;;;;;;;4.23;3.93;;;;;;;17.25;100.00;97165.66;4968797;28;20786;-66
2022/08/02 00:34:05;;;;;;;4.30;4.10;;;;;;;17.23;100.00;97162.38;4919214;28;20234;-68
2022/08/02 00:36:53;;;;;;;3.97;3.70;;;;;;;17.25;100.00;97163.00;4960509;28;20831;-68
2022/08/02 00:39:22;;;;;;;4.37;4.07;;;;;;;17.15;100.00;97173.41;4965563;28;20245;-68
2022/08/02 00:42:06;;;;;;;4.70;4.40;;;;;;;17.01;100.00;97172.75;4962161;28;20293;-69
2022/08/02 00:44:38;;;;;;;4.53;4.00;;;;;;;16.97;100.00;97167.03;4940450;28;20324;-66
2022/08/02 00:47:07;;;;;;;4.17;3.83;;;;;;;16.96;100.00;97170.75;4962913;28;20616;-68
2022/08/02 00:49:38;;;;;;;4.27;3.97;;;;;;;16.96;100.00;97181.44;4918995;28;20658;-66
2022/08/02 00:52:12;;;;;;;4.80;4.50;;;;;;;16.88;100.00;97179.09;4926437;28;20202;-64
2022/08/02 00:54:41;;;;;;;4.53;4.13;;;;;;;16.91;100.00;97181.31;4950265;28;20232;-68
2022/08/02 00:57:16;;;;;;;4.13;3.83;;;;;;;16.83;100.00;97174.41;4963202;28;20260;-67
2022/08/02 00:59:47;;;;;;;4.30;4.00;;;;;;;16.67;100.00;97177.66;4953075;28;20222;-68
2022/08/02 01:02:16;;;;;;;4.73;4.40;;;;;;;16.79;100.00;97173.22;4963148;28;20704;-70
2022/08/02 01:04:45;;;;;;;4.30;4.00;;;;;;;16.75;100.00;97175.50;4968602;28;20722;-69
2022/08/02 01:07:14;;;;;;;4.50;4.10;;;;;;;16.59;100.00;97171.56;4915967;28;21342;-68
2022/08/02 01:09:45;;;;;;;5.13;4.83;;;;;;;16.70;100.00;97167.34;4961632;28;20222;-68
2022/08/02 01:12:19;;;;;;;4.97;4.67;;;;;;;16.37;100.00;97167.72;4959664;28;20237;-68
2022/08/02 01:14:51;;;;;;;4.80;4.20;;;;;;;16.50;100.00;97167.56;4953075;28;20320;-70
2022/08/02 01:17:24;;;;;;;3.90;3.70;;;;;;;16.54;100.00;97159.94;4962694;28;20498;-69
2022/08/02 01:19:57;;;;;;;5.90;4.53;;;;;;;16.61;100.00;97163.34;4966378;28;20609;-68
2022/08/02 01:23:05;;;;;;;4.97;4.67;;;;;;;16.46;100.00;97164.50;4962695;28;20655;-69
2022/08/02 01:25:53;;;;;;;4.80;3.80;;;;;;;16.42;100.00;97163.31;4947485;28;20238;-69
2022/08/02 01:28:38;;;;;;;4.93;4.53;;;;;;;16.43;100.00;97162.28;4959899;28;20202;-69
2022/08/02 01:31:11;;;;;;;4.10;3.70;;;;;;;16.39;100.00;97154.94;4945758;28;20285;-67
2022/08/02 01:33:50;;;;;;;4.03;3.83;;;;;;;16.41;100.00;97163.56;4960789;28;20205;-69
2022/08/02 01:36:26;;;;;;;4.57;4.27;;;;;;;16.51;100.00;97153.16;4959159;28;20218;-69
2022/08/02 01:38:56;;;;;;;4.93;4.53;;;;;;;16.45;100.00;97151.38;4960020;28;20251;-67
2022/08/02 01:41:28;;;;;;;4.20;4.00;;;;;;;16.39;100.00;97145.06;4937164;28;20804;-69
2022/08/02 01:44:01;;;;;;;4.20;4.00;;;;;;;16.33;100.00;97143.28;4961803;28;20660;-67
2022/08/02 01:46:39;;;;;;;4.63;4.23;;;;;;;16.34;100.00;97135.03;4958933;28;20215;-69
2022/08/02 01:49:12;;;;;;;4.60;4.20;;;;;;;16.41;100.00;97142.97;4965935;28;20224;-67
2022/08/02 01:54:33;;;;;;;4.53;4.27;;;;;;;16.44;100.00;97142.53;4920058;28;20803;-69
2022/08/02 01:57:03;;;;;;;5.10;4.63;;;;;;;16.31;100.00;97142.69;4962370;28;20237;-67
2022/08/02 01:59:34;;;;;;;4.63;4.33;;;;;;;16.12;100.00;97142.66;4947035;28;21168;-69
2022/08/02 02:02:11;;;;;;;5.03;4.67;;;;;;;16.22;100.00;97146.69;4959459;28;20300;-66
2022/08/02 02:04:48;;;;;;;4.63;4.33;;;;;;;16.24;100.00;97152.63;4958890;28;20221;-68
2022/08/02 02:07:20;;;;;;;4.77;4.47;;;;;;;16.20;100.00;97158.41;4960811;28;20209;-68
2022/08/02 02:09:52;;;;;;;4.57;4.17;;;;;;;16.25;100.00;97152.38;4962264;28;20338;-67
2022/08/02 02:12:23;;;;;;;4.53;4.33;;;;;;;16.12;100.00;97148.03;4918621;28;20214;-68
2022/08/02 02:14:57;;;;;;;4.47;4.07;;;;;;;16.13;100.00;97154.16;4955517;28;20628;-69
2022/08/02 02:17:29;;;;;;;4.20;3.90;;;;;;;16.19;100.00;97155.94;4966366;28;20210;-67
2022/08/02 02:20:19;;;;;;;5.10;4.30;;;;;;;16.16;100.00;97159.06;4965371;28;20248;-68
2022/08/02 02:22:53;;;;;;;4.03;3.83;;;;;;;15.99;100.00;97161.47;4963750;28;20213;-69
2022/08/02 02:25:23;;;;;;;4.30;4.00;;;;;;;15.98;100.00;97160.69;4966585;28;20506;-69
2022/08/02 02:28:12;;;;;;;4.20;4.00;;;;;;;16.03;100.00;97168.03;4921929;28;20220;-67
2022/08/02 02:30:50;;;;;;;4.63;4.23;;;;;;;15.83;100.00;97162.81;4951060;28;20518;-69
2022/08/02 02:33:23;;;;;;;4.60;4.30;;;;;;;15.84;100.00;97164.44;4965451;28;20221;-68
2022/08/02 02:36:00;;;;;;;4.30;4.10;;;;;;;15.85;100.00;97160.75;4971637;28;20201;-67
2022/08/02 02:38:33;;;;;;;4.33;4.13;;;;;;;15.88;100.00;97169.19;4961273;28;20206;-66
2022/08/02 02:41:05;;;;;;;4.50;4.13;;;;;;;15.86;100.00;97175.72;4941895;28;20205;-66
2022/08/02 02:43:45;;;;;;;4.50;4.20;;;;;;;16.04;100.00;97181.19;4954416;28;20696;-68
2022/08/02 02:46:21;;;;;;;4.57;4.27;;;;;;;16.06;100.00;97172.91;4951665;28;20478;-66
2022/08/02 02:49:35;;;;;;;5.97;4.87;;;;;;;15.88;100.00;97177.19;4953685;28;20210;-66
2022/08/02 02:52:05;;;;;;;4.50;4.20;;;;;;;15.83;100.00;97173.50;4962903;28;20899;-67
2022/08/02 02:54:33;;;;;;;4.63;4.33;;;;;;;15.79;100.00;97183.81;4968000;28;20225;-68
2022/08/02 02:57:06;;;;;;;5.93;4.83;;;;;;;15.75;100.00;97175.41;4940179;28;20586;-66
2022/08/02 02:59:39;;;;;;;4.37;4.07;;;;;;;15.82;100.00;97182.56;4906202;28;20205;-66
2022/08/02 03:02:19;;;;;;;4.50;4.23;;;;;;;15.73;100.00;97184.69;4964989;28;20319;-66
2022/08/02 03:04:48;;;;;;;4.43;4.13;;;;;;;15.79;100.00;97183.81;4960713;28;20521;-67
2022/08/02 03:07:33;;;;;;;5.07;4.60;;;;;;;15.77;100.00;97184.03;4944978;28;20214;-67
2022/08/02 03:10:04;;;;;;;5.00;4.70;;;;;;;15.88;100.00;97176.38;4965238;28;20241;-69
2022/08/02 03:12:32;;;;;;;5.07;4.67;;;;;;;15.84;100.00;97180.47;4941785;28;21127;-66
2022/08/02 03:15:04;;;;;;;4.40;4.20;;;;;;;15.84;100.00;97183.16;4964585;28;20221;-67
2022/08/02 03:17:44;;;;;;;5.10;4.73;;;;;;;15.80;100.00;97188.13;4911456;28;20605;-69
2022/08/02 03:20:18;;;;;;;4.80;4.50;;;;;;;15.76;100.00;97187.72;4964035;28;20203;-69
2022/08/02 03:22:47;;;;;;;4.70;4.40;;;;;;;15.75;100.00;97195.97;4962304;28;20376;-69
2022/08/02 03:25:24;;;;;;;5.40;5.00;;;;;;;15.75;100.00;97199.44;4966353;28;20753;-66
2022/08/02 03:27:52;;;;;;;4.90;4.60;;;;;;;15.73;100.00;97206.88;4943625;28;20446;-69
2022/08/02 03:30:26;;;;;;;5.27;4.90;;;;;;;15.61;100.00;97209.41;4962864;28;20222;-67
2022/08/02 03:33:00;;;;;;;4.93;4.53;;;;;;;15.61;100.00;97217.41;4918517;28;20766;-68
2022/08/02 03:35:34;;;;;;;5.07;4.70;;;;;;;15.52;100.00;97209.88;4934233;28;20354;-68
2022/08/02 03:38:02;;;;;;;4.53;4.23;;;;;;;15.49;100.00;97217.28;4969020;28;20217;-66
2022/08/02 03:40:33;;;;;;;5.03;4.73;;;;;;;15.44;100.00;97210.97;4966860;28;20410;-68
2022/08/02 03:43:02;;;;;;;5.07;4.77;;;;;;;15.28;100.00;97221.09;4949344;28;20849;-64
2022/08/02 03:45:30;;;;;;;5.50;5.10;;;;;;;15.14;100.00;97220.34;4949880;28;20329;-69
2022/08/02 03:48:01;;;;;;;4.83;4.43;;;;;;;14.99;100.00;97214.47;4927222;28;20214;-67
2022/08/02 03:50:52;;;;;;;4.73;4.33;;;;;;;15.04;100.00;97217.31;4955025;28;20233;-69
2022/08/02 03:53:21;;;;;;;5.83;5.33;;;;;;;14.98;100.00;97221.66;4960089;28;20291;-69
2022/08/02 03:55:52;;;;;;;5.60;5.20;;;;;;;15.02;100.00;97217.53;4963464;28;20233;-69
2022/08/02 03:58:26;;;;;;;5.47;5.10;;;;;;;14.95;100.00;97218.59;4939782;28;20240;-69
2022/08/02 04:00:59;;;;;;;4.90;4.60;;;;;;;15.03;100.00;97216.50;4907376;28;20690;-66
2022/08/02 04:03:29;;;;;;;4.97;4.67;;;;;;;14.98;100.00;97220.84;4923243;28;20693;-68
2022/08/02 04:05:58;;;;;;;6.60;5.20;;;;;;;15.02;100.00;97222.03;4941418;28;20691;-67
2022/08/02 04:08:33;;;;;;;5.80;5.40;;;;;;;15.08;100.00;97225.72;4964418;28;20202;-67
2022/08/02 04:13:51;;;;;;;5.73;5.23;;;;;;;15.27;100.00;97222.13;4961654;28;20225;-67
2022/08/02 04:16:39;;;;;;;5.70;5.20;;;;;;;15.26;100.00;97227.69;4940287;28;20218;-67
2022/08/02 04:19:11;;;;;;;5.67;5.27;;;;;;;15.24;100.00;97227.91;4906257;28;20777;-66
2022/08/02 04:21:46;;;;;;;8.53;6.17;;;;;;;15.25;100.00;97232.19;4963204;28;20598;-65
2022/08/02 04:24:22;;;;;;;13.37;5.20;;;;;;;15.31;100.00;97230.53;4961482;28;20435;-64
2022/08/02 04:26:54;;;;;;;6.63;6.13;;;;;;;15.27;100.00;97221.31;4960028;28;20646;-65
2022/08/02 04:29:29;;;;;;;5.47;5.10;;;;;;;15.19;100.00;97228.56;4944925;28;20309;-64
2022/08/02 04:32:01;;;;;;;5.82;5.40;;;;;;;15.15;100.00;97224.69;4944236;28;20536;-66
2022/08/02 04:34:34;;;;;;;5.97;5.47;;;;;;;15.29;100.00;97230.75;4943318;28;20233;-69
2022/08/02 04:37:02;;;;;;;6.67;5.50;;;;;;;15.49;100.00;97227.16;4941659;28;20431;-68
2022/08/02 04:39:33;;;;;;;5.70;5.20;;;;;;;15.56;100.00;97229.81;4961781;28;20218;-68
2022/08/02 04:42:04;;;;;;;5.20;4.87;;;;;;;15.62;100.00;97231.59;4946428;28;20891;-69
2022/08/02 04:44:37;;;;;;;6.30;5.67;;;;;;;15.68;100.00;97235.25;4965502;28;20316;-67
2022/08/02 04:47:07;;;;;;;6.17;5.63;;;;;;;15.87;100.00;97226.28;4946470;28;20232;-69
2022/08/02 04:49:41;;;;;;;6.73;6.23;;;;;;;15.64;100.00;97229.53;4941643;28;20213;-67
2022/08/02 04:52:09;;;;;;;6.30;5.80;;;;;;;15.89;100.00;97236.78;4957454;28;20515;-69
2022/08/02 04:54:47;;;;;;;5.50;5.10;;;;;;;16.04;100.00;97237.28;4964288;28;20544;-66
2022/08/02 05:00:29;;;;;;;6.87;6.20;;;;;;;16.39;100.00;97246.66;4960374;28;20551;-65
2022/08/02 05:03:07;;;;;;;6.33;5.87;;;;;;;16.42;100.00;97248.88;4908211;28;1182365;-67
2022/08/02 05:05:55;;;;;;;6.10;5.70;;;;;;;16.57;100.00;97256.56;4967319;28;20486;-66
2022/08/02 05:08:54;;;;;;;6.40;5.80;;;;;;;16.84;100.00;97258.97;4969957;28;20709;-67
2022/08/02 05:11:36;;;;;;;5.30;5.00;;;;;;;16.75;100.00;97257.66;4969293;28;20997;-67
2022/08/02 05:14:11;;;;;;;5.67;5.27;;;;;;;17.02;100.00;97257.34;4959128;28;20283;-65
2022/08/02 05:16:54;;;;;;;6.20;5.80;;;;;;;17.16;100.00;97256.19;4970498;28;20205;-67
2022/08/02 05:19:39;;;;;;;5.93;5.43;;;;;;;17.32;100.00;97259.28;4953071;28;21604;-67
2022/08/02 05:22:24;;;;;;;5.50;5.10;;;;;;;17.31;100.00;97263.81;4923483;28;20654;-66
2022/08/02 05:25:09;;;;;;;5.20;4.80;;;;;;;17.42;100.00;97258.75;4966464;28;20642;-66
2022/08/02 05:27:48;;;;;;;4.93;4.63;;;;;;;17.59;100.00;97256.25;4968382;28;20260;-68
2022/08/02 05:30:25;;;;;;;7.03;5.60;;;;;;;17.68;100.00;97256.75;4967163;28;20295;-67
2022/08/02 05:33:00;;;;;;;5.67;4.67;;;;;;;17.74;100.00;97245.91;4968548;28;20201;-65
2022/08/02 05:35:42;;;;;;;5.77;5.17;;;;;;;17.83;100.00;97246.41;4946902;28;20234;-65
2022/08/02 05:38:31;;;;;;;5.57;5.07;;;;;;;17.78;100.00;97254.34;4918766;28;21030;-66
2022/08/02 05:41:29;;;;;;;5.13;4.73;;;;;;;17.94;100.00;97267.06;4966282;28;20910;-67
2022/08/02 05:44:25;;;;;;;4.70;4.40;;;;;;;18.09;100.00;97257.81;4961950;28;20241;-68
2022/08/02 05:47:23;;;;;;;4.63;4.27;;;;;;;18.16;100.00;97261.22;4966702;28;20244;-68
2022/08/02 05:50:39;;;;;;;4.30;4.00;;;;;;;18.18;100.00;97258.28;4966859;28;20288;-68
2022/08/02 05:53:57;;;;;;;4.50;4.10;;;;;;;18.04;100.00;97265.75;4929649;28;20201;-67
2022/08/02 05:57:01;;;;;;;4.13;3.93;;;;;;;18.34;100.00;97259.47;4968369;28;20674;-63
2022/08/02 06:00:13;;;;;;;4.93;4.67;;;;;;;18.33;100.00;97264.03;4967064;28;20288;-68
2022/08/02 06:03:28;;;;;;;4.50;4.20;;;;;;;18.51;100.00;97260.41;4966905;28;20359;-68
2022/08/02 06:06:34;;;;;;;4.20;3.90;;;;;;;18.65;100.00;97255.63;4951544;28;20556;-67
2022/08/02 06:09:36;;;;;;;4.50;4.20;;;;;;;18.84;100.00;97270.78;4924320;28;20252;-65
2022/08/02 06:12:44;;;;;;;4.20;3.97;;;;;;;18.99;100.00;97252.34;4960498;28;20286;-65
2022/08/02 06:16:00;;;;;;;4.33;4.03;;;;;;;18.89;100.00;97266.31;4965537;28;20375;-65
2022/08/02 06:19:09;;;;;;;4.70;4.43;;;;;;;19.24;100.00;97270.03;4967314;28;20348;-67
2022/08/02 06:22:24;;;;;;;5.13;4.73;;;;;;;19.04;100.00;97276.59;4950645;28;20224;-68
2022/08/02 06:25:39;;;;;;;4.30;4.00;;;;;;;19.37;100.00;97268.97;4923482;28;20434;-68
2022/08/02 06:28:47;;;;;;;4.27;4.03;;;;;;;19.52;100.00;97269.25;4967273;28;20721;-65
2022/08/02 06:51:40;;;;;;;4.27;3.87;;;;;;;20.64;100.00;97280.53;4931518;28;20264;-66
2022/08/02 06:54:36;;;;;;;4.07;3.87;;;;;;;20.67;100.00;97271.97;4897977;28;21409;-66
2022/08/02 06:57:56;;;;;;;3.70;3.40;;;;;;;20.59;100.00;97270.50;4940276;28;20209;-67
2022/08/02 07:04:47;;;;;;;4.13;3.57;;;;;;;21.18;100.00;97263.78;4750732;28;20239;-65
2022/08/02 07:07:31;;;;;;;4.00;3.70;;;;;;;21.24;100.00;97270.03;4956217;28;20218;-66
2022/08/02 07:10:33;;;;;;;4.40;3.47;;;;;;;21.51;100.00;97278.16;4929173;28;20229;-66
2022/08/02 07:13:33;;;;;;;3.80;3.60;;;;;;;21.74;100.00;97264.69;4915314;28;20240;-66
2022/08/02 07:16:23;;;;;;;3.93;3.73;;;;;;;22.06;100.00;97270.13;4954312;28;20537;-67
2022/08/02 07:19:23;;;;;;;4.20;3.90;;;;;;;22.10;100.00;97265.00;4967367;28;20348;-66
2022/08/02 07:22:26;;;;;;;3.63;3.43;;;;;;;22.39;100.00;97270.94;4944817;28;20655;-67
2022/08/02 07:25:34;;;;;;;3.80;3.50;;;;;;;22.32;100.00;97266.81;4967038;28;20236;-67
2022/08/02 07:28:26;;;;;;;4.43;4.03;;;;;;;22.04;100.00;97269.56;4911039;28;20699;-65
2022/08/02 07:31:18;;;;;;;4.43;4.13;;;;;;;22.24;100.00;97276.19;4964360;28;20229;-66
2022/08/02 07:34:04;;;;;;;4.20;4.00;;;;;;;22.44;100.00;97277.44;4944009;28;20703;-65
2022/08/02 07:37:02;;;;;;;5.37;5.00;;;;;;;22.53;100.00;97271.31;4966418;28;20201;-66
2022/08/02 07:40:22;;;;;;;4.80;4.50;;;;;;;22.78;100.00;97271.75;4967268;28;20212;-66
2022/08/02 07:43:12;;;;;;;3.87;3.57;;;;;;;22.91;100.00;97267.75;4971650;28;20197;-65
2022/08/02 07:46:03;;;;;;;3.53;3.27;;;;;;;22.94;100.00;97264.56;4923370;28;20668;-66
2022/08/02 07:49:24;;;;;;;3.70;3.50;;;;;;;22.94;100.00;97269.97;4961013;28;20245;-66
2022/08/02 07:52:29;;;;;;;4.87;4.47;;;;;;;23.36;100.00;97269.09;4962927;28;20352;-65
2022/08/02 07:55:36;;;;;;;8.40;7.80;;;;;;;23.52;100.00;97269.94;4965696;28;20646;-65
2022/08/02 07:58:39;;;;;;;3.93;3.50;;;;;;;23.55;100.00;97266.72;4962679;28;20317;-66
2022/08/02 08:01:48;;;;;;;3.97;3.77;;;;;;;23.58;100.00;97265.34;4917813;28;20822;-66
2022/08/02 08:05:26;;;;;;;3.80;3.50;;;;;;;23.74;100.00;97244.56;4925231;28;21026;-66
2022/08/02 08:08:59;;;;;;;3.10;2.90;;;;;;;23.76;100.00;97245.09;4960948;28;20658;-66
2022/08/02 08:12:32;;;;;;;3.80;3.50;;;;;;;23.53;100.00;97247.25;4966834;28;20299;-66
2022/08/02 08:15:24;;;;;;;3.37;3.20;;;;;;;23.52;100.00;97242.09;4968597;28;20412;-67
2022/08/02 08:17:55;;;;;;;3.97;3.67;;;;;;;23.73;100.00;97236.72;4892561;28;20225;-66
2022/08/02 08:20:42;;;;;;;6.33;5.83;;;;;;;23.62;100.00;97233.19;4934808;28;20207;-65
2022/08/02 08:23:34;;;;;;;3.13;3.03;;;;;;;23.76;100.00;97242.41;4962739;28;20777;-66
2022/08/02 08:26:35;;;;;;;5.87;3.30;;;;;;;23.75;100.00;97235.38;4960710;28;20234;-66
2022/08/02 08:29:43;;;;;;;4.03;2.77;;;;;;;23.85;100.00;97232.66;4960430;28;20216;-66
2022/08/02 08:33:00;;;;;;;3.53;3.27;;;;;;;24.00;100.00;97236.47;4919343;28;20515;-67
2022/08/02 08:36:05;;;;;;;3.30;3.03;;;;;;;24.29;100.00;97238.69;4941532;28;20240;-66
2022/08/02 08:39:26;;;;;;;3.50;3.30;;;;;;;24.20;100.00;97243.00;4968960;28;20221;-66
2022/08/02 08:42:27;;;;;;;3.60;3.30;;;;;;;24.18;100.00;97232.44;4962688;28;20237;-66
2022/08/02 08:44:59;;;;;;;3.50;3.07;;;;;;;24.37;100.00;97235.41;4968645;28;20221;-66
2022/08/02 08:47:57;;;;;;;3.20;2.93;;;;;;;24.57;100.00;97242.69;4914907;28;20222;-66
2022/08/02 08:50:52;;;;;;;2.57;2.47;;;;;;;24.54;100.00;97243.25;4955968;28;20287;-66
2022/08/02 08:53:53;;;;;;;3.53;2.83;;;;;;;24.45;100.00;97242.19;4948793;28;20506;-67
2022/08/02 08:56:55;;;;;;;3.97;3.07;;;;;;;24.43;100.00;97236.19;4965519;28;20216;-67
2022/08/02 08:59:59;;;;;;;3.40;3.10;;;;;;;24.73;100.00;97245.34;4964331;28;20469;-67
2022/08/02 09:03:16;;;;;;;3.03;2.70;;;;;;;24.70;100.00;97248.63;4918324;28;20709;-66
2022/08/02 09:12:16;;;;;;;2.60;2.50;;;;;;;25.16;96.10;97253.13;4968109;28;20325;-65
2022/08/02 09:15:02;;;;;;;3.20;3.00;;;;;;;25.38;95.24;97254.63;4967860;28;20233;-66
2022/08/02 09:17:52;;;;;;;3.67;2.50;;;;;;;25.48;91.45;97253.81;4965171;28;20209;-65
2022/08/02 09:20:27;;;;;;;4.77;2.80;;;;;;;25.50;91.72;97257.06;4919465;28;20217;-66
2022/08/02 09:23:07;;;;;;;3.77;3.30;;;;;;;25.67;85.82;97246.66;4925401;28;20216;-66
2022/08/02 09:25:43;;;;;;;4.00;3.20;;;;;;;25.85;90.83;97241.63;4942738;28;20288;-66
2022/08/02 09:28:37;;;;;;;3.43;3.23;;;;;;;25.67;89.99;97245.84;4948214;28;20731;-66
2022/08/02 09:31:24;;;;;;;3.63;2.70;;;;;;;25.57;91.26;97244.81;4942320;28;20224;-66
2022/08/02 09:34:24;;;;;;;2.97;2.70;;;;;;;25.68;91.54;97250.16;4967968;28;20231;-66
2022/08/02 09:37:31;;;;;;;2.90;2.43;;;;;;;25.75;90.59;97250.66;4927896;28;20645;-65
2022/08/02 09:40:38;;;;;;;3.87;3.57;;;;;;;26.20;87.10;97247.13;4959797;28;20236;-65
2022/08/02 09:43:23;;;;;;;2.87;2.67;;;;;;;26.49;85.80;97243.59;4948189;28;20288;-66
2022/08/02 09:46:23;;;;;;;3.27;2.67;;;;;;;26.24;88.76;97246.25;4942732;28;20254;-64
2022/08/02 09:49:05;;;;;;;2.73;2.53;;;;;;;26.75;81.56;97243.34;4964716;28;20229;-66
2022/08/02 09:51:55;;;;;;;3.33;3.03;;;;;;;26.71;74.04;97224.91;4946231;28;20578;-64
2022/08/02 09:54:44;;;;;;;3.43;3.13;;;;;;;27.24;72.73;97236.00;4965505;28;20306;-65
2022/08/02 09:57:38;;;;;;;2.93;2.63;;;;;;;27.33;68.99;97242.41;4964610;28;20213;-66
2022/08/02 10:00:24;;;;;;;3.47;3.23;;;;;;;27.53;67.21;97235.13;4947302;28;20221;-65
2022/08/02 10:03:24;;;;;;;3.67;3.00;;;;;;;27.87;55.36;97239.53;4965239;28;20916;-66
2022/08/02 10:06:18;;;;;;;4.47;2.40;;;;;;;28.71;54.89;97229.66;4965524;28;20376;-66
2022/08/02 10:09:19;;;;;;;3.03;2.83;;;;;;;29.03;50.75;97227.97;4894780;28;20233;-66
2022/08/02 10:12:18;;;;;;;3.50;3.00;;;;;;;28.79;49.32;97220.00;4961774;28;20588;-65
2022/08/02 10:15:01;;;;;;;2.90;2.70;;;;;;;29.48;47.57;97234.72;4948595;28;20234;-66
2022/08/02 10:17:44;;;;;;;4.93;2.73;;;;;;;29.16;46.11;97231.81;4942919;28;20286;-65
2022/08/02 10:20:46;;;;;;;3.57;2.90;;;;;;;28.64;49.61;97223.81;4963481;28;20920;-66
2022/08/02 10:23:35;;;;;;;2.57;2.47;;;;;;;28.64;47.93;97225.72;4934683;28;20639;-63
2022/08/02 10:26:19;;;;;;;3.10;2.90;;;;;;;28.52;50.12;97226.22;4958235;28;20203;-65
2022/08/02 10:28:59;;;;;;;2.60;2.50;;;;;;;28.33;45.32;97215.38;4966167;28;20218;-66
2022/08/02 10:31:48;;;;;;;3.00;2.80;;;;;;;28.16;48.25;97214.00;4947892;28;20215;-66
2022/08/02 10:34:32;;;;;;;3.20;3.00;;;;;;;28.24;51.86;97207.91;4946307;28;20702;-66
2022/08/02 10:37:15;;;;;;;3.20;2.90;;;;;;;28.52;52.05;97213.38;4967098;28;20202;-66
2022/08/02 10:40:02;;;;;;;2.90;2.70;;;;;;;28.53;49.75;97203.31;4924265;28;20210;-66
2022/08/02 10:43:00;;;;;;;3.00;2.80;;;;;;;28.56;47.72;97203.50;4964934;28;20280;-66
2022/08/02 10:45:40;;;;;;;2.97;2.77;;;;;;;28.60;48.67;97198.25;4949192;28;20613;-66
2022/08/02 10:48:31;;;;;;;3.67;2.80;;;;;;;28.42;52.24;97180.88;4944633;28;20230;-65
2022/08/02 10:51:28;;;;;;;3.13;2.83;;;;;;;28.28;53.16;97178.97;4965886;28;20217;-66
2022/08/02 10:54:22;;;;;;;3.67;3.37;;;;;;;28.62;49.70;97174.25;4970077;28;20237;-65
2022/08/02 10:57:08;;;;;;;3.10;2.40;;;;;;;28.79;49.43;97170.13;4963824;28;20203;-66
2022/08/02 10:59:57;;;;;;;2.67;2.47;;;;;;;29.17;47.58;97176.16;4966499;28;20237;-66
2022/08/02 11:02:47;;;;;;;2.93;2.73;;;;;;;28.93;45.18;97159.19;4948019;28;20895;-66
2022/08/02 11:06:14;;;;;;;3.27;2.67;;;;;;;29.02;43.25;97163.63;4942902;28;20245;-66
2022/08/02 11:09:38;;;;;;;3.20;3.10;;;;;;;28.78;43.57;97169.31;4966919;28;20212;-65
2022/08/02 11:12:19;;;;;;;5.17;4.87;;;;;;;28.88;43.59;97169.09;4920215;28;20293;-65
2022/08/02 11:15:08;;;;;;;3.07;2.83;;;;;;;28.49;43.74;97167.66;4971352;28;20230;-64
2022/08/02 11:18:04;;;;;;;3.00;2.80;;;;;;;28.40;43.64;97167.56;4958910;28;20220;-67
2022/08/02 11:21:27;;;;;;;2.60;2.40;;;;;;;28.63;46.48;97166.88;4950879;28;20226;-64
2022/08/02 11:24:31;;;;;;;2.47;2.30;;;;;;;28.33;43.92;97167.16;4966899;28;20226;-64
2022/08/02 11:27:23;;;;;;;2.80;2.60;;;;;;;28.27;46.11;97169.16;4927001;28;20250;-65
2022/08/02 11:30:18;;;;;;;2.80;2.70;;;;;;;28.21;45.33;97169.56;4939896;28;20404;-66
2022/08/02 11:33:09;;;;;;;2.63;2.53;;;;;;;27.64;45.02;97167.72;4967822;28;20281;-66
2022/08/02 11:36:09;;;;;;;3.03;2.77;;;;;;;27.91;44.12;97171.66;4949777;28;20471;-66
2022/08/02 11:38:57;;;;;;;3.87;3.43;;;;;;;27.77;49.06;97168.88;4968237;28;20237;-64
2022/08/02 11:41:56;;;;;;;3.07;2.97;;;;;;;27.99;48.91;97179.16;4950107;28;20220;-65
2022/08/02 11:44:48;;;;;;;3.10;2.70;;;;;;;28.58;45.32;97178.69;4923635;28;20230;-65
2022/08/02 11:47:37;;;;;;;2.90;2.70;;;;;;;28.74;44.31;97166.34;4965228;28;20287;-66
2022/08/02 11:50:19;;;;;;;2.20;1.97;;;;;;;28.82;43.48;97166.81;4970201;28;20765;-65
2022/08/02 11:53:01;;;;;;;2.57;2.47;;;;;;;28.35;45.44;97169.59;4964519;28;20289;-65
2022/08/02 11:55:52;;;;;;;2.43;2.33;;;;;;;27.87;47.89;97174.97;4964333;28;20229;-63
2022/08/02 11:58:34;;;;;;;3.00;2.80;;;;;;;27.57;49.94;97168.13;4971911;28;20205;-66
2022/08/02 12:01:28;;;;;;;2.50;2.30;;;;;;;27.28;48.86;97160.88;4966591;28;20237;-66
2022/08/02 12:04:33;;;;;;;2.53;2.40;;;;;;;27.00;48.56;97172.41;4967242;28;20525;-66
2022/08/02 12:24:04;;;;;;;2.40;2.30;;;;;;;27.04;48.15;97158.22;4932449;28;20279;-64
2022/08/02 12:27:02;;;;;;;2.47;2.30;;;;;;;27.38;48.13;97159.94;4917913;28;20288;-64
2022/08/02 12:29:42;;;;;;;2.70;2.50;;;;;;;27.52;43.47;97149.16;4919598;28;20251;-64
2022/08/02 12:32:54;;;;;;;2.00;1.80;;;;;;;27.92;43.02;97151.50;4887172;28;20222;-66
2022/08/02 12:36:11;;;;;;;2.10;2.00;;;;;;;28.44;41.90;97146.78;4925254;28;20218;-65
2022/08/02 12:39:43;;;;;;;2.20;2.10;;;;;;;29.42;40.03;97148.63;4928288;28;20346;-64
2022/08/02 12:42:53;;;;;;;2.00;1.90;;;;;;;30.20;39.53;97133.09;4899429;28;20341;-65
2022/08/02 12:45:58;;;;;;;2.20;2.10;;;;;;;30.27;38.75;97142.47;4927208;28;20254;-65
2022/08/02 12:48:58;;;;;;;1.80;1.70;;;;;;;30.51;38.44;97135.00;4921624;28;21111;-65
2022/08/02 12:51:57;;;;;;;1.83;1.77;;;;;;;30.21;39.30;97132.78;4931449;28;20226;-66
2022/08/02 12:54:58;;;;;;;2.00;1.90;;;;;;;29.62;40.66;97139.16;4928526;28;20241;-66
2022/08/02 12:58:08;;;;;;;2.10;2.00;;;;;;;29.49;38.88;97132.63;4918349;28;20226;-66
2022/08/02 13:00:45;;;;;;;2.00;1.90;;;;;;;29.33;39.60;97126.69;4923487;28;20477;-66
2022/08/02 13:03:41;;;;;;;2.17;2.07;;;;;;;28.97;39.96;97116.56;4893541;28;20957;-64
2022/08/02 13:06:42;;;;;;;2.23;2.13;;;;;;;28.71;40.81;97123.34;4949774;28;20241;-65
2022/08/02 13:09:46;;;;;;;1.80;1.80;;;;;;;29.46;38.56;97114.13;4967964;28;20293;-66
2022/08/02 13:12:46;;;;;;;1.70;1.70;;;;;;;32.73;35.09;97108.75;4943645;28;20492;-63
2022/08/02 13:15:59;;;;;;;3.33;1.57;;;;;;;41.81;24.97;97119.19;4951217;28;20245;-64
2022/08/02 13:18:36;;;;;;;2.50;1.97;;;;;;;46.20;18.77;97113.59;4931309;28;20323;-65
2022/08/02 13:21:19;;;;;;;5.10;2.27;;;;;;;46.31;17.75;97113.41;4970252;28;20242;-64
2022/08/02 13:24:19;;;;;;;1.67;1.57;;;;;;;47.10;17.54;97113.22;4966096;28;20226;-64
2022/08/02 13:27:14;;;;;;;1.93;1.70;;;;;;;45.89;17.50;97115.66;4962579;28;20327;-64
2022/08/02 13:30:00;;;;;;;1.37;1.27;;;;;;;44.36;19.03;97122.13;4957125;28;20202;-63
2022/08/02 13:32:59;;;;;;;1.30;1.30;;;;;;;46.29;17.65;97107.44;4922512;28;20215;-64
2022/08/02 13:35:40;;;;;;;1.40;1.40;;;;;;;44.83;17.94;97107.72;4938429;28;20621;-64
2022/08/02 13:38:27;;;;;;;1.57;1.57;;;;;;;41.36;21.37;97101.94;4959869;28;20203;-65
2022/08/02 13:41:15;;;;;;;2.40;1.60;;;;;;;37.62;24.37;97100.31;4968310;28;20868;-64
2022/08/02 13:44:21;;;;;;;1.40;1.40;;;;;;;36.08;27.51;97093.69;4966976;28;20231;-67
2022/08/02 13:47:16;;;;;;;1.80;1.70;;;;;;;34.66;29.26;97094.38;4967981;28;20574;-66
2022/08/02 13:50:20;;;;;;;2.47;1.53;;;;;;;33.11;29.55;97101.59;4972128;28;20217;-67
2022/08/02 13:53:09;;;;;;;1.90;1.70;;;;;;;32.63;31.88;97090.75;4943833;28;20205;-65
2022/08/02 13:55:56;;;;;;;3.20;1.80;;;;;;;32.33;32.56;97081.72;4965229;28;20236;-64